Aviation Digital Data Service (ADDS)

Output produced by METARs form (1103 UTC 30 April 2017)
found at http://www.aviationweather.gov/adds/metars/
 
SUCA 301100Z XXXXXKT CAVOK 12/09 Q1019
SUCA 300530Z 3006/0106 30010KT CAVOK TX24/3018Z TN11/3010Z 
     TEMPO 3006/3012 5000 BR NSC
       
SUDU 301100Z 33006KT CAVOK 08/07 Q1022
SUDU 300530Z 3006/0106 30010KT CAVOK TX24/3018Z TN11/3010Z 
     TEMPO 3006/3012 5000 BR NSC
       
SUMU 301100Z 35006KT CAVOK 12/10 Q1021 NOSIG
SUMU 302305Z 3000/3024 28006KT CAVOK TX23/3018Z TN11/3010Z 
     PROB30 
     TEMPO 3006/3009 5000 BR NSC 
     BECMG 3010/3014 32008KT 9999 FEW020
       
SUAA 301000Z 00000KT CAVOK 10/06 Q1021
SUAA 300530Z 3006/0106 30010KT CAVOK TX24/3018Z TN11/3010Z 
     TEMPO 3006/3012 5000 BR NSC
       
SULS 301100Z 32009KT CAVOK 15/09 Q1021
SULS 300530Z 3006/0106 30010KT CAVOK TX24/3018Z TN11/3010Z 
     TEMPO 3006/3012 5000 BR NSC
       
SURV 300530Z 3006/0106 02010KT CAVOK TX25/3018Z TN09/3010Z 
     TEMPO 3006/3012 3000 BR NSC
       
SUSO 301100Z 14006KT CAVOK 06/06 Q1023
SUSO 300530Z 3006/0106 02010KT CAVOK TX25/3018Z TN09/3010Z 
     TEMPO 3006/3012 3000 BR NSC